Time;durP1;ratioP1;P1;durP2;ratioP2;P2;SDS_P1;SDS_P2;PMS_P1;PMS_P2;Temp;Humidity;BMP_temperature;BMP_pressure;BME280_temperature;BME280_humidity;BME280_pressure;Samples;Min_cycle;Max_cycle;Signal;HPM_P1;HPM_P2
2023/03/02 00:00:17;;;;;;;0.30;0.30;;;;;;;;;;5035712;28;20241;-68
2023/03/02 00:02:43;;;;;;;0.27;0.27;;;;;;;;;;5060194;28;20209;-69
2023/03/02 00:05:13;;;;;;;0.20;0.20;;;;;;;;;;5035476;28;20234;-69
2023/03/02 00:07:39;;;;;;;0.30;0.30;;;;;;;;;;5059842;28;20206;-69
2023/03/02 00:10:06;;;;;;;0.30;0.30;;;;;;;;;;5044903;28;20284;-69
2023/03/02 00:12:33;;;;;;;0.30;0.30;;;;;;;;;;5033546;28;20490;-69
2023/03/02 00:15:01;;;;;;;0.30;0.30;;;;;;;;;;5045149;28;20238;-69
2023/03/02 00:17:27;;;;;;;0.30;0.30;;;;;;;;;;5050019;28;20262;-69
2023/03/02 00:19:54;;;;;;;0.30;0.30;;;;;;;;;;5044812;28;20205;-68
2023/03/02 00:22:20;;;;;;;0.30;0.30;;;;;;;;;;5049991;28;20262;-69
2023/03/02 00:24:46;;;;;;;0.20;0.20;;;;;;;;;;5044907;28;20536;-69
2023/03/02 00:27:13;;;;;;;0.40;0.40;;;;;;;;;;5049926;28;20299;-68
2023/03/02 00:29:39;;;;;;;0.30;0.30;;;;;;;;;;5044076;28;20202;-69
2023/03/02 00:32:07;;;;;;;0.20;0.20;;;;;;;;;;5049559;28;20254;-68
2023/03/02 00:34:34;;;;;;;0.30;0.30;;;;;;;;;;5044314;28;20215;-68
2023/03/02 00:37:00;;;;;;;4.77;4.53;;;;;;;;;;5048800;28;20246;-69
2023/03/02 00:39:26;;;;;;;0.30;0.30;;;;;;;;;;5045286;28;20224;-69
2023/03/02 00:41:53;;;;;;;0.30;0.30;;;;;;;;;;5047680;28;20274;-69
2023/03/02 00:44:19;;;;;;;0.30;0.30;;;;;;;;;;5046261;28;20206;-69
2023/03/02 00:46:46;;;;;;;0.30;0.30;;;;;;;;;;5046810;28;20263;-69
2023/03/02 00:49:13;;;;;;;7.37;6.97;;;;;;;;;;5047074;28;20273;-69
2023/03/02 00:51:40;;;;;;;2.57;2.50;;;;;;;;;;5045877;28;20246;-69
2023/03/02 00:54:06;;;;;;;0.30;0.30;;;;;;;;;;5047389;28;20245;-69
2023/03/02 00:56:33;;;;;;;0.30;0.30;;;;;;;;;;5045012;28;20488;-69
2023/03/02 00:59:04;;;;;;;0.30;0.30;;;;;;;;;;5048387;28;20296;-68
2023/03/02 01:01:30;;;;;;;0.30;0.30;;;;;;;;;;5044569;28;20244;-68
2023/03/02 01:03:57;;;;;;;0.30;0.30;;;;;;;;;;5048779;28;20299;-69
2023/03/02 01:06:24;;;;;;;0.30;0.30;;;;;;;;;;5043652;28;20255;-68
2023/03/02 01:08:51;;;;;;;0.30;0.30;;;;;;;;;;5049263;28;20268;-68
2023/03/02 01:11:18;;;;;;;0.30;0.30;;;;;;;;;;5042848;28;20248;-69
2023/03/02 01:13:45;;;;;;;0.30;0.30;;;;;;;;;;5049970;28;20276;-68
2023/03/02 01:16:11;;;;;;;0.33;0.33;;;;;;;;;;5042031;28;20241;-68
2023/03/02 01:18:38;;;;;;;0.30;0.30;;;;;;;;;;5050887;28;20258;-69
2023/03/02 01:21:06;;;;;;;0.30;0.30;;;;;;;;;;5041112;28;20240;-69
2023/03/02 01:23:33;;;;;;;0.30;0.30;;;;;;;;;;5051409;28;20238;-68
2023/03/02 01:26:00;;;;;;;0.30;0.30;;;;;;;;;;5040284;28;20852;-69
2023/03/02 01:28:26;;;;;;;0.30;0.30;;;;;;;;;;5052423;28;20433;-68
2023/03/02 01:30:53;;;;;;;0.30;0.30;;;;;;;;;;5039404;28;20307;-68
2023/03/02 01:33:20;;;;;;;0.30;0.30;;;;;;;;;;5052832;28;20226;-68
2023/03/02 01:35:46;;;;;;;0.30;0.30;;;;;;;;;;5038507;28;20245;-69
2023/03/02 01:38:13;;;;;;;2.63;2.47;;;;;;;;;;5053747;28;20231;-71
2023/03/02 01:40:40;;;;;;;0.30;0.30;;;;;;;;;;5040108;28;20299;-68
2023/03/02 01:43:11;;;;;;;0.30;0.30;;;;;;;;;;5061589;28;20267;-68
2023/03/02 01:45:51;;;;;;;0.30;0.30;;;;;;;;;;5044031;28;20622;-69
2023/03/02 01:48:20;;;;;;;0.73;0.73;;;;;;;;;;5059669;28;20193;-68
2023/03/02 01:50:46;;;;;;;0.23;0.23;;;;;;;;;;5045083;28;20574;-69
2023/03/02 01:53:14;;;;;;;0.30;0.30;;;;;;;;;;5060248;28;20263;-68
2023/03/02 01:55:43;;;;;;;0.33;0.33;;;;;;;;;;5044164;28;20311;-69
2023/03/02 01:58:10;;;;;;;0.30;0.30;;;;;;;;;;5060726;28;20211;-68
2023/03/02 02:00:38;;;;;;;0.30;0.30;;;;;;;;;;5043802;28;20307;-68
2023/03/02 02:03:08;;;;;;;0.30;0.30;;;;;;;;;;5061626;28;20204;-69
2023/03/02 02:05:36;;;;;;;0.30;0.30;;;;;;;;;;5043556;28;20240;-70
2023/03/02 02:08:03;;;;;;;0.30;0.30;;;;;;;;;;5061482;28;20282;-69
2023/03/02 02:10:29;;;;;;;0.40;0.40;;;;;;;;;;5042606;28;20315;-68
2023/03/02 02:12:57;;;;;;;0.33;0.33;;;;;;;;;;5062745;28;20193;-69
2023/03/02 02:15:23;;;;;;;0.30;0.30;;;;;;;;;;5041978;28;20276;-68
2023/03/02 02:17:53;;;;;;;0.30;0.30;;;;;;;;;;5063174;28;20221;-68
2023/03/02 02:20:23;;;;;;;0.30;0.30;;;;;;;;;;5041307;28;20230;-69
2023/03/02 02:22:54;;;;;;;0.30;0.30;;;;;;;;;;5062925;28;20208;-68
2023/03/02 02:25:25;;;;;;;0.30;0.30;;;;;;;;;;5041612;28;20521;-68
2023/03/02 02:27:54;;;;;;;0.20;0.20;;;;;;;;;;5062666;28;20236;-68
2023/03/02 02:30:20;;;;;;;0.30;0.30;;;;;;;;;;5041241;28;20240;-69
2023/03/02 02:32:48;;;;;;;0.30;0.30;;;;;;;;;;5063507;28;20279;-69
2023/03/02 02:35:16;;;;;;;0.30;0.30;;;;;;;;;;5040599;28;20656;-68
2023/03/02 02:37:44;;;;;;;0.20;0.20;;;;;;;;;;5063879;28;20228;-68
2023/03/02 02:40:13;;;;;;;0.30;0.30;;;;;;;;;;5040022;28;20251;-69
2023/03/02 02:42:41;;;;;;;0.60;0.60;;;;;;;;;;5064244;28;20224;-69
2023/03/02 02:45:17;;;;;;;0.30;0.30;;;;;;;;;;5041390;28;20205;-68
2023/03/02 02:47:43;;;;;;;0.30;0.30;;;;;;;;;;5049556;28;20201;-69
2023/03/02 02:50:16;;;;;;;0.30;0.30;;;;;;;;;;5039919;28;20566;-69
2023/03/02 02:52:43;;;;;;;2.10;2.00;;;;;;;;;;5061299;28;20195;-69
2023/03/02 02:55:14;;;;;;;0.30;0.30;;;;;;;;;;5036791;28;20331;-69
2023/03/02 02:57:41;;;;;;;0.30;0.30;;;;;;;;;;5061131;28;20195;-69
2023/03/02 03:00:16;;;;;;;0.30;0.30;;;;;;;;;;5045361;28;20293;-70
2023/03/02 03:02:44;;;;;;;0.30;0.30;;;;;;;;;;5046523;28;20368;-69
2023/03/02 03:05:14;;;;;;;0.30;0.30;;;;;;;;;;5036503;28;20232;-69
2023/03/02 03:07:40;;;;;;;0.30;0.30;;;;;;;;;;5060602;28;20261;-69
2023/03/02 03:10:11;;;;;;;0.30;0.30;;;;;;;;;;5045626;28;20209;-69
2023/03/02 03:12:38;;;;;;;0.40;0.40;;;;;;;;;;5060833;28;20217;-67
2023/03/02 03:15:06;;;;;;;0.37;0.37;;;;;;;;;;5046152;28;20231;-69
2023/03/02 03:17:33;;;;;;;0.30;0.30;;;;;;;;;;5034551;28;20301;-67
2023/03/02 03:20:05;;;;;;;0.30;0.30;;;;;;;;;;5045902;28;20297;-67
2023/03/02 03:22:32;;;;;;;2.77;2.67;;;;;;;;;;5051228;28;20314;-67
2023/03/02 03:24:58;;;;;;;0.30;0.30;;;;;;;;;;5045974;28;20260;-67
2023/03/02 03:27:24;;;;;;;6.67;6.27;;;;;;;;;;5051056;28;20590;-67
2023/03/02 03:29:51;;;;;;;0.30;0.30;;;;;;;;;;5045990;28;20241;-67
2023/03/02 03:32:18;;;;;;;0.30;0.30;;;;;;;;;;5050989;28;20241;-68
2023/03/02 03:34:46;;;;;;;0.30;0.30;;;;;;;;;;5045973;28;20499;-68
2023/03/02 03:37:14;;;;;;;0.30;0.30;;;;;;;;;;5050761;28;20259;-67
2023/03/02 03:39:41;;;;;;;0.30;0.30;;;;;;;;;;5045702;28;20599;-67
2023/03/02 03:42:07;;;;;;;0.30;0.30;;;;;;;;;;5050700;28;20316;-67
2023/03/02 03:44:33;;;;;;;0.30;0.30;;;;;;;;;;5045509;28;20278;-68
2023/03/02 03:47:00;;;;;;;0.30;0.30;;;;;;;;;;5049665;28;20303;-67
2023/03/02 03:49:26;;;;;;;0.30;0.30;;;;;;;;;;5046463;28;20202;-67
2023/03/02 03:51:54;;;;;;;0.30;0.30;;;;;;;;;;5048614;28;20306;-68
2023/03/02 03:54:21;;;;;;;0.30;0.30;;;;;;;;;;5047074;28;20282;-67
2023/03/02 03:56:48;;;;;;;0.37;0.37;;;;;;;;;;5047891;28;20562;-67
2023/03/02 03:59:15;;;;;;;0.30;0.30;;;;;;;;;;5047462;28;20295;-68
2023/03/02 04:01:43;;;;;;;0.30;0.30;;;;;;;;;;5047008;28;20244;-67
2023/03/02 04:04:10;;;;;;;0.30;0.30;;;;;;;;;;5047035;28;20405;-67
2023/03/02 04:06:37;;;;;;;0.43;0.43;;;;;;;;;;5046648;28;20237;-68
2023/03/02 04:09:05;;;;;;;0.43;0.43;;;;;;;;;;5048662;28;20234;-67
2023/03/02 04:11:31;;;;;;;0.30;0.30;;;;;;;;;;5045641;28;20239;-67
2023/03/02 04:13:58;;;;;;;0.30;0.30;;;;;;;;;;5049648;28;20208;-67
2023/03/02 04:16:24;;;;;;;0.30;0.30;;;;;;;;;;5044678;28;20580;-67
2023/03/02 04:18:50;;;;;;;0.30;0.30;;;;;;;;;;5050422;28;20297;-68
2023/03/02 04:21:17;;;;;;;0.30;0.30;;;;;;;;;;5043325;28;20257;-67
2023/03/02 04:23:43;;;;;;;0.30;0.30;;;;;;;;;;5051077;28;20237;-67
2023/03/02 04:26:11;;;;;;;0.30;0.30;;;;;;;;;;5042593;28;20239;-67
2023/03/02 04:28:37;;;;;;;0.30;0.30;;;;;;;;;;5052192;28;20243;-68
2023/03/02 04:31:04;;;;;;;0.30;0.30;;;;;;;;;;5041380;28;20309;-67
2023/03/02 04:33:30;;;;;;;0.30;0.30;;;;;;;;;;5052563;28;20214;-67
2023/03/02 04:35:56;;;;;;;0.30;0.30;;;;;;;;;;5040848;28;20605;-68
2023/03/02 04:38:23;;;;;;;0.30;0.30;;;;;;;;;;5053403;28;20244;-68
2023/03/02 04:40:49;;;;;;;0.30;0.30;;;;;;;;;;5039893;28;20244;-68
2023/03/02 04:43:17;;;;;;;0.40;0.40;;;;;;;;;;5054493;28;20604;-68
2023/03/02 04:45:43;;;;;;;0.30;0.30;;;;;;;;;;5038887;28;20253;-68
2023/03/02 04:48:10;;;;;;;0.30;0.30;;;;;;;;;;5055209;28;20206;-68
2023/03/02 04:50:37;;;;;;;0.30;0.30;;;;;;;;;;5037916;28;20266;-68
2023/03/02 04:53:03;;;;;;;0.30;0.30;;;;;;;;;;5055982;28;20511;-68
2023/03/02 04:55:30;;;;;;;0.33;0.33;;;;;;;;;;5036847;28;20298;-68
2023/03/02 04:57:56;;;;;;;0.30;0.30;;;;;;;;;;5056604;28;20212;-68
2023/03/02 05:00:24;;;;;;;0.30;0.30;;;;;;;;;;5035671;28;20549;-68
2023/03/02 05:02:50;;;;;;;0.67;0.67;;;;;;;;;;5057515;28;20276;-68
2023/03/02 05:05:19;;;;;;;0.33;0.33;;;;;;;;;;5034823;28;20256;-68
2023/03/02 05:07:46;;;;;;;0.30;0.30;;;;;;;;;;5057989;28;20495;-68
2023/03/02 05:10:12;;;;;;;0.30;0.30;;;;;;;;;;5034529;28;20267;-68
2023/03/02 05:12:53;;;;;;;0.30;0.30;;;;;;;;;;5058912;28;20224;-68
2023/03/02 05:15:20;;;;;;;0.83;0.83;;;;;;;;;;5035015;28;20568;-68
2023/03/02 05:17:48;;;;;;;0.30;0.30;;;;;;;;;;5057414;28;20206;-67
2023/03/02 05:20:14;;;;;;;0.43;0.43;;;;;;;;;;5034561;28;20299;-68
2023/03/02 05:22:40;;;;;;;0.30;0.30;;;;;;;;;;5058049;28;20224;-68
2023/03/02 05:25:07;;;;;;;0.30;0.30;;;;;;;;;;5039621;28;20245;-68
2023/03/02 05:27:34;;;;;;;0.30;0.30;;;;;;;;;;5059111;28;20218;-68
2023/03/02 05:30:00;;;;;;;8.77;8.23;;;;;;;;;;5043924;28;20212;-68
2023/03/02 05:32:27;;;;;;;3.57;3.37;;;;;;;;;;5048657;28;20280;-68
2023/03/02 05:34:54;;;;;;;0.30;0.30;;;;;;;;;;5043673;28;20211;-67
2023/03/02 05:37:21;;;;;;;0.30;0.30;;;;;;;;;;5048654;28;20623;-67
2023/03/02 05:39:47;;;;;;;0.30;0.30;;;;;;;;;;5043528;28;20316;-67
2023/03/02 05:42:13;;;;;;;0.30;0.30;;;;;;;;;;5048680;28;20255;-68
2023/03/02 05:44:40;;;;;;;0.33;0.33;;;;;;;;;;5043629;28;20213;-68
2023/03/02 05:47:06;;;;;;;0.20;0.20;;;;;;;;;;5048644;28;20243;-68
2023/03/02 05:49:32;;;;;;;0.30;0.30;;;;;;;;;;5043421;28;20232;-68
2023/03/02 05:52:00;;;;;;;0.30;0.30;;;;;;;;;;5047552;28;20350;-68
2023/03/02 05:54:27;;;;;;;0.30;0.30;;;;;;;;;;5044308;28;20209;-68
2023/03/02 05:56:53;;;;;;;0.30;0.30;;;;;;;;;;5046854;28;20313;-68
2023/03/02 05:59:19;;;;;;;0.37;0.37;;;;;;;;;;5044935;28;20198;-67
2023/03/02 06:01:46;;;;;;;0.30;0.30;;;;;;;;;;5045444;28;20240;-68
2023/03/02 06:04:13;;;;;;;0.30;0.30;;;;;;;;;;5046180;28;20252;-68
2023/03/02 06:06:39;;;;;;;0.30;0.30;;;;;;;;;;5044901;28;20312;-67
2023/03/02 06:09:07;;;;;;;0.30;0.30;;;;;;;;;;5046661;28;20295;-68
2023/03/02 06:11:33;;;;;;;0.40;0.40;;;;;;;;;;5044162;28;20354;-68
2023/03/02 06:13:59;;;;;;;0.33;0.33;;;;;;;;;;5047585;28;20532;-68
2023/03/02 06:16:26;;;;;;;0.30;0.30;;;;;;;;;;5043459;28;20563;-68
2023/03/02 06:18:52;;;;;;;0.33;0.33;;;;;;;;;;5048520;28;20462;-68
2023/03/02 06:21:18;;;;;;;0.30;0.30;;;;;;;;;;5042202;28;20493;-69
2023/03/02 06:23:45;;;;;;;0.40;0.40;;;;;;;;;;5049516;28;20206;-68
2023/03/02 06:26:13;;;;;;;0.40;0.40;;;;;;;;;;5041352;28;20251;-68
2023/03/02 06:28:39;;;;;;;0.40;0.40;;;;;;;;;;5053192;28;20204;-69
2023/03/02 06:31:05;;;;;;;0.30;0.30;;;;;;;;;;5044371;28;20312;-69
2023/03/02 06:33:32;;;;;;;0.30;0.30;;;;;;;;;;5054625;28;20517;-69
2023/03/02 06:35:58;;;;;;;0.30;0.30;;;;;;;;;;5043209;28;20240;-69
2023/03/02 06:38:25;;;;;;;0.30;0.30;;;;;;;;;;5055475;28;20280;-70
2023/03/02 06:40:51;;;;;;;0.30;0.30;;;;;;;;;;5042038;28;20302;-69
2023/03/02 06:43:19;;;;;;;1.33;1.33;;;;;;;;;;5056685;28;20271;-71
2023/03/02 06:45:45;;;;;;;0.30;0.30;;;;;;;;;;5041676;28;20307;-69
2023/03/02 06:48:11;;;;;;;0.30;0.30;;;;;;;;;;5056995;28;20232;-69
2023/03/02 06:50:38;;;;;;;0.30;0.30;;;;;;;;;;5040468;28;20263;-69
2023/03/02 06:53:04;;;;;;;0.30;0.30;;;;;;;;;;5058009;28;20193;-69
2023/03/02 06:55:31;;;;;;;0.33;0.33;;;;;;;;;;5039544;28;20244;-69
2023/03/02 06:57:57;;;;;;;0.30;0.30;;;;;;;;;;5058628;28;20192;-69
2023/03/02 07:00:26;;;;;;;0.30;0.30;;;;;;;;;;5038346;28;20236;-69
2023/03/02 07:02:53;;;;;;;0.30;0.30;;;;;;;;;;5059154;28;20217;-69
2023/03/02 07:05:20;;;;;;;0.30;0.30;;;;;;;;;;5037870;28;20225;-69
2023/03/02 07:07:46;;;;;;;0.30;0.30;;;;;;;;;;5059852;28;20259;-70
2023/03/02 07:10:13;;;;;;;0.30;0.30;;;;;;;;;;5036957;28;20500;-69
2023/03/02 07:12:39;;;;;;;3.47;3.23;;;;;;;;;;5060657;28;20266;-69
2023/03/02 07:15:09;;;;;;;0.30;0.30;;;;;;;;;;5046278;28;20485;-69
2023/03/02 07:17:37;;;;;;;0.30;0.30;;;;;;;;;;5034754;28;20212;-69
2023/03/02 07:20:04;;;;;;;0.33;0.33;;;;;;;;;;5046040;28;20239;-68
2023/03/02 07:22:31;;;;;;;0.30;0.30;;;;;;;;;;5051149;28;20248;-69
2023/03/02 07:24:59;;;;;;;0.30;0.30;;;;;;;;;;5046110;28;20443;-73
2023/03/02 07:27:25;;;;;;;0.30;0.30;;;;;;;;;;5051041;28;20312;-69
2023/03/02 07:29:52;;;;;;;0.30;0.30;;;;;;;;;;5046006;28;20233;-69
2023/03/02 07:32:18;;;;;;;0.30;0.30;;;;;;;;;;5051118;28;20315;-69
2023/03/02 07:34:46;;;;;;;0.30;0.30;;;;;;;;;;5046014;28;20237;-69
2023/03/02 07:37:12;;;;;;;0.50;0.50;;;;;;;;;;5050956;28;20320;-70
2023/03/02 07:39:39;;;;;;;0.30;0.30;;;;;;;;;;5045709;28;20491;-67
2023/03/02 07:42:07;;;;;;;0.93;0.93;;;;;;;;;;5050367;28;20315;-69
2023/03/02 07:44:34;;;;;;;0.30;0.30;;;;;;;;;;5045548;28;20205;-70
2023/03/02 07:47:00;;;;;;;0.20;0.20;;;;;;;;;;5049893;28;20384;-69
2023/03/02 07:49:27;;;;;;;0.23;0.23;;;;;;;;;;5046465;28;20206;-68
2023/03/02 07:51:54;;;;;;;0.20;0.20;;;;;;;;;;5048905;28;20257;-73
2023/03/02 07:54:21;;;;;;;0.27;0.27;;;;;;;;;;5046905;28;20243;-73
2023/03/02 07:56:47;;;;;;;0.20;0.20;;;;;;;;;;5047970;28;20268;-72
2023/03/02 07:59:14;;;;;;;0.20;0.20;;;;;;;;;;5047927;28;20394;-72
2023/03/02 08:01:40;;;;;;;0.30;0.30;;;;;;;;;;5047057;28;20257;-72
2023/03/02 08:04:07;;;;;;;1.63;1.63;;;;;;;;;;5048672;28;20570;-72
2023/03/02 08:06:33;;;;;;;0.40;0.40;;;;;;;;;;5046039;28;20498;-72
2023/03/02 08:09:03;;;;;;;0.27;0.27;;;;;;;;;;5049204;28;20207;-72
2023/03/02 08:11:29;;;;;;;0.67;0.67;;;;;;;;;;5045463;28;20261;-75
2023/03/02 08:13:58;;;;;;;0.20;0.20;;;;;;;;;;5049844;28;20280;-73
2023/03/02 08:16:25;;;;;;;0.20;0.20;;;;;;;;;;5044775;28;20445;-72
2023/03/02 08:18:51;;;;;;;0.20;0.20;;;;;;;;;;5050438;28;20435;-72
2023/03/02 08:21:19;;;;;;;0.30;0.30;;;;;;;;;;5043660;28;20242;-72
2023/03/02 08:23:45;;;;;;;0.30;0.30;;;;;;;;;;5051188;28;20299;-72
2023/03/02 08:26:13;;;;;;;0.20;0.20;;;;;;;;;;5042947;28;20309;-72
2023/03/02 08:28:40;;;;;;;0.20;0.20;;;;;;;;;;5051586;28;20207;-72
2023/03/02 08:31:07;;;;;;;0.20;0.20;;;;;;;;;;5042250;28;20470;-71
2023/03/02 08:33:34;;;;;;;0.30;0.30;;;;;;;;;;5052365;28;20555;-72
2023/03/02 08:36:02;;;;;;;0.20;0.20;;;;;;;;;;5040989;28;20268;-72
2023/03/02 08:38:28;;;;;;;0.27;0.27;;;;;;;;;;5053051;28;20205;-72
2023/03/02 08:40:54;;;;;;;0.20;0.20;;;;;;;;;;5040448;28;20254;-72
2023/03/02 08:43:23;;;;;;;0.20;0.20;;;;;;;;;;5053965;28;20397;-71
2023/03/02 08:45:51;;;;;;;0.20;0.20;;;;;;;;;;5039775;28;20279;-72
2023/03/02 08:48:17;;;;;;;0.20;0.20;;;;;;;;;;5054029;28;20208;-72
2023/03/02 08:50:43;;;;;;;0.13;0.13;;;;;;;;;;5038161;28;20298;-72
2023/03/02 08:53:10;;;;;;;0.73;0.73;;;;;;;;;;5054855;28;20369;-73
2023/03/02 08:55:36;;;;;;;0.10;0.10;;;;;;;;;;5037868;28;20278;-72
2023/03/02 08:58:03;;;;;;;0.10;0.10;;;;;;;;;;5055700;28;20272;-72
2023/03/02 09:00:30;;;;;;;0.10;0.10;;;;;;;;;;5036375;28;20307;-73
2023/03/02 09:02:57;;;;;;;0.10;0.10;;;;;;;;;;5056823;28;20444;-73
2023/03/02 09:05:23;;;;;;;0.10;0.10;;;;;;;;;;5035944;28;20299;-72
2023/03/02 09:07:50;;;;;;;0.10;0.10;;;;;;;;;;5057559;28;20196;-71
2023/03/02 09:10:16;;;;;;;2.35;2.28;;;;;;;;;;5035033;28;20232;-72
2023/03/02 09:12:42;;;;;;;0.10;0.10;;;;;;;;;;5058350;28;20494;-72
2023/03/02 09:15:09;;;;;;;0.10;0.10;;;;;;;;;;5034112;28;20206;-72
2023/03/02 09:17:37;;;;;;;0.10;0.10;;;;;;;;;;5058904;28;20270;-72
2023/03/02 09:20:03;;;;;;;0.00;0.00;;;;;;;;;;5043968;28;20287;-73
2023/03/02 09:22:30;;;;;;;0.08;0.08;;;;;;;;;;5048948;28;20237;-72
2023/03/02 09:24:56;;;;;;;0.10;0.10;;;;;;;;;;5043746;28;20407;-72
2023/03/02 09:27:23;;;;;;;0.00;0.00;;;;;;;;;;5048957;28;20244;-74
2023/03/02 09:29:49;;;;;;;0.40;0.40;;;;;;;;;;5043768;28;20271;-72
2023/03/02 09:32:16;;;;;;;0.00;0.00;;;;;;;;;;5049003;28;20501;-72
2023/03/02 09:34:43;;;;;;;0.00;0.00;;;;;;;;;;5043962;28;20236;-72
2023/03/02 09:37:10;;;;;;;0.00;0.00;;;;;;;;;;5048856;28;20315;-72
2023/03/02 09:39:36;;;;;;;0.10;0.10;;;;;;;;;;5043620;28;20275;-72
2023/03/02 09:42:23;;;;;;;0.00;0.00;;;;;;;;;;5047993;28;20311;-72
2023/03/02 09:45:10;;;;;;;0.00;0.00;;;;;;;;;;5043788;28;20504;-72
2023/03/02 09:47:38;;;;;;;0.00;0.00;;;;;;;;;;5032241;28;20209;-72
2023/03/02 09:50:11;;;;;;;0.00;0.00;;;;;;;;;;5043452;28;20441;-70
2023/03/02 09:52:40;;;;;;;0.00;0.00;;;;;;;;;;5032243;28;20201;-71
2023/03/02 09:55:15;;;;;;;29.90;28.25;;;;;;;;;;5043627;28;20212;-70
2023/03/02 09:57:42;;;;;;;0.00;0.00;;;;;;;;;;5043536;28;20341;-73
2023/03/02 10:00:15;;;;;;;0.00;0.00;;;;;;;;;;5033686;28;20251;-73
2023/03/02 10:02:45;;;;;;;0.00;0.00;;;;;;;;;;5060890;28;20259;-72
2023/03/02 10:05:17;;;;;;;0.00;0.00;;;;;;;;;;5037263;28;20551;-71
2023/03/02 10:07:44;;;;;;;0.00;0.00;;;;;;;;;;5061665;28;20264;-72
2023/03/02 10:10:18;;;;;;;0.00;0.00;;;;;;;;;;5037630;28;20243;-72
2023/03/02 10:12:51;;;;;;;0.00;0.00;;;;;;;;;;5061011;28;20226;-74
2023/03/02 10:15:22;;;;;;;0.00;0.00;;;;;;;;;;5038367;28;20232;-73
2023/03/02 10:17:53;;;;;;;0.35;0.35;;;;;;;;;;5060898;28;20280;-70
2023/03/02 10:20:25;;;;;;;0.00;0.00;;;;;;;;;;5038852;28;20205;-70
2023/03/02 10:22:54;;;;;;;10.73;10.18;;;;;;;;;;5060177;28;20239;-69
2023/03/02 10:25:24;;;;;;;0.00;0.00;;;;;;;;;;5038805;28;20271;-72
2023/03/02 10:27:52;;;;;;;0.00;0.00;;;;;;;;;;5060223;28;20224;-72
2023/03/02 10:30:20;;;;;;;0.00;0.00;;;;;;;;;;5037949;28;20224;-71
2023/03/02 10:32:48;;;;;;;0.00;0.00;;;;;;;;;;5060437;28;20275;-72
2023/03/02 10:35:16;;;;;;;0.00;0.00;;;;;;;;;;5037798;28;20208;-72
2023/03/02 10:37:44;;;;;;;0.00;0.00;;;;;;;;;;5061256;28;20419;-71
2023/03/02 10:40:21;;;;;;;0.00;0.00;;;;;;;;;;5037292;28;20284;-72
2023/03/02 10:42:48;;;;;;;0.00;0.00;;;;;;;;;;5060445;28;20244;-71
2023/03/02 10:45:18;;;;;;;0.00;0.00;;;;;;;;;;5037699;28;20420;-72
2023/03/02 10:47:45;;;;;;;0.00;0.00;;;;;;;;;;5060690;28;20192;-71
2023/03/02 10:50:20;;;;;;;0.00;0.00;;;;;;;;;;5037017;28;20276;-69
2023/03/02 10:52:50;;;;;;;0.25;0.25;;;;;;;;;;5060054;28;20231;-69
2023/03/02 10:55:17;;;;;;;0.00;0.00;;;;;;;;;;5037290;28;20209;-69
2023/03/02 10:57:44;;;;;;;0.08;0.08;;;;;;;;;;5060785;28;20440;-71
2023/03/02 11:00:14;;;;;;;0.00;0.00;;;;;;;;;;5036706;28;20204;-71
2023/03/02 11:02:48;;;;;;;0.00;0.00;;;;;;;;;;5060709;28;20220;-71
2023/03/02 11:05:29;;;;;;;0.00;0.00;;;;;;;;;;5037160;28;20335;-72
2023/03/02 11:07:58;;;;;;;8.07;4.18;;;;;;;;;;5055672;28;20212;-71
2023/03/02 11:10:26;;;;;;;1.10;1.10;;;;;;;;;;5038147;28;20204;-68
2023/03/02 11:12:53;;;;;;;0.00;0.00;;;;;;;;;;5058351;28;20189;-69
2023/03/02 11:15:22;;;;;;;0.00;0.00;;;;;;;;;;5037629;28;20243;-69
2023/03/02 11:17:50;;;;;;;0.00;0.00;;;;;;;;;;5059533;28;20260;-69
2023/03/02 11:20:19;;;;;;;0.00;0.00;;;;;;;;;;5036923;28;20211;-68
2023/03/02 11:22:49;;;;;;;0.00;0.00;;;;;;;;;;5059637;28;20280;-70
2023/03/02 11:25:21;;;;;;;0.00;0.00;;;;;;;;;;5037103;28;20255;-70
2023/03/02 11:27:52;;;;;;;0.00;0.00;;;;;;;;;;5059442;28;20199;-68
2023/03/02 11:30:21;;;;;;;0.00;0.00;;;;;;;;;;5037373;28;20211;-68
2023/03/02 11:32:52;;;;;;;0.10;0.10;;;;;;;;;;5059121;28;20208;-69
2023/03/02 11:35:24;;;;;;;0.00;0.00;;;;;;;;;;5037140;28;20208;-68
2023/03/02 11:37:52;;;;;;;0.00;0.00;;;;;;;;;;5059046;28;20199;-70
2023/03/02 11:40:22;;;;;;;0.00;0.00;;;;;;;;;;5037036;28;20233;-71
2023/03/02 11:42:49;;;;;;;0.00;0.00;;;;;;;;;;5059259;28;20217;-68
2023/03/02 11:45:17;;;;;;;3.20;2.92;;;;;;;;;;5036752;28;20445;-68
2023/03/02 11:47:47;;;;;;;0.00;0.00;;;;;;;;;;5059802;28;20201;-67
2023/03/02 11:50:15;;;;;;;0.35;0.35;;;;;;;;;;5036224;28;20272;-67
2023/03/02 11:52:44;;;;;;;0.00;0.00;;;;;;;;;;5059783;28;20235;-69
2023/03/02 11:55:16;;;;;;;0.00;0.00;;;;;;;;;;5035610;28;20229;-69
2023/03/02 11:57:48;;;;;;;0.00;0.00;;;;;;;;;;5059873;28;20311;-68
2023/03/02 12:00:20;;;;;;;0.00;0.00;;;;;;;;;;5035893;28;20213;-69
2023/03/02 12:02:57;;;;;;;0.00;0.00;;;;;;;;;;5059123;28;20217;-70
2023/03/02 12:05:28;;;;;;;0.00;0.00;;;;;;;;;;5037235;28;20725;-69
2023/03/02 12:07:58;;;;;;;0.00;0.00;;;;;;;;;;5057781;28;20236;-69
2023/03/02 12:10:27;;;;;;;0.00;0.00;;;;;;;;;;5037395;28;20276;-68
2023/03/02 12:13:07;;;;;;;3.50;3.30;;;;;;;;;;5057996;28;20205;-69
2023/03/02 12:15:41;;;;;;;0.00;0.00;;;;;;;;;;5038097;28;20309;-66
2023/03/02 12:18:26;;;;;;;0.00;0.00;;;;;;;;;;5055774;28;20264;-67
2023/03/02 12:20:58;;;;;;;0.00;0.00;;;;;;;;;;5040578;28;20251;-68
2023/03/02 12:23:25;;;;;;;0.00;0.00;;;;;;;;;;5053703;28;20274;-68
2023/03/02 12:26:01;;;;;;;0.00;0.00;;;;;;;;;;5039410;28;20244;-68
2023/03/02 12:28:32;;;;;;;0.00;0.00;;;;;;;;;;5053445;28;20224;-68
2023/03/02 12:31:06;;;;;;;0.20;0.20;;;;;;;;;;5041220;28;20436;-68
2023/03/02 12:33:32;;;;;;;0.00;0.00;;;;;;;;;;5052476;28;20390;-68
2023/03/02 12:36:10;;;;;;;0.00;0.00;;;;;;;;;;5041168;28;20239;-68
2023/03/02 12:38:38;;;;;;;0.00;0.00;;;;;;;;;;5051842;28;20264;-69
2023/03/02 12:41:17;;;;;;;0.00;0.00;;;;;;;;;;5041789;28;20310;-69
2023/03/02 12:43:47;;;;;;;0.00;0.00;;;;;;;;;;5050698;28;20321;-69
2023/03/02 12:46:27;;;;;;;0.20;0.20;;;;;;;;;;5042940;28;20246;-68
2023/03/02 12:48:59;;;;;;;0.00;0.00;;;;;;;;;;5049491;28;20263;-68
2023/03/02 12:51:26;;;;;;;0.00;0.00;;;;;;;;;;5044041;28;20256;-68
2023/03/02 12:54:01;;;;;;;0.00;0.00;;;;;;;;;;5049700;28;20443;-68
2023/03/02 12:56:28;;;;;;;0.00;0.00;;;;;;;;;;5044324;28;20246;-68
2023/03/02 12:58:56;;;;;;;0.00;0.00;;;;;;;;;;5049381;28;20205;-68
2023/03/02 13:01:24;;;;;;;0.00;0.00;;;;;;;;;;5043369;28;20262;-68
2023/03/02 13:03:51;;;;;;;0.00;0.00;;;;;;;;;;5049789;28;20487;-68
2023/03/02 13:06:18;;;;;;;0.00;0.00;;;;;;;;;;5043008;28;20642;-68
2023/03/02 13:08:46;;;;;;;0.00;0.00;;;;;;;;;;5050190;28;20272;-69
2023/03/02 13:11:12;;;;;;;0.03;0.03;;;;;;;;;;5042234;28;20244;-68
2023/03/02 13:13:40;;;;;;;0.00;0.00;;;;;;;;;;5051156;28;20200;-68
2023/03/02 13:16:20;;;;;;;0.00;0.00;;;;;;;;;;5041458;28;20252;-68
2023/03/02 13:18:48;;;;;;;0.00;0.00;;;;;;;;;;5049868;28;20193;-68
2023/03/02 13:21:16;;;;;;;0.00;0.00;;;;;;;;;;5042121;28;20303;-67
2023/03/02 13:23:45;;;;;;;0.00;0.00;;;;;;;;;;5050449;28;20291;-68
2023/03/02 13:26:21;;;;;;;3.00;2.63;;;;;;;;;;5041939;28;20247;-68
2023/03/02 13:28:48;;;;;;;0.00;0.00;;;;;;;;;;5049499;28;20223;-68
2023/03/02 13:31:20;;;;;;;0.00;0.00;;;;;;;;;;5042034;28;20594;-68
2023/03/02 13:33:47;;;;;;;0.00;0.00;;;;;;;;;;5049727;28;20240;-69
2023/03/02 13:36:17;;;;;;;0.00;0.00;;;;;;;;;;5041758;28;20302;-67
2023/03/02 13:38:47;;;;;;;0.00;0.00;;;;;;;;;;5050175;28;20504;-68
2023/03/02 13:41:20;;;;;;;0.00;0.00;;;;;;;;;;5041351;28;20311;-67
2023/03/02 13:43:47;;;;;;;1.73;1.65;;;;;;;;;;5050165;28;20288;-68
2023/03/02 13:46:27;;;;;;;0.00;0.00;;;;;;;;;;5042107;28;20243;-68
2023/03/02 13:48:54;;;;;;;0.00;0.00;;;;;;;;;;5048806;28;20411;-68
2023/03/02 13:51:22;;;;;;;0.00;0.00;;;;;;;;;;5042766;28;20365;-68
2023/03/02 13:53:51;;;;;;;0.00;0.00;;;;;;;;;;5049100;28;20201;-68
2023/03/02 13:56:18;;;;;;;0.00;0.00;;;;;;;;;;5042331;28;20256;-68
2023/03/02 13:58:44;;;;;;;0.00;0.00;;;;;;;;;;5049610;28;20276;-68
2023/03/02 14:01:11;;;;;;;0.75;0.65;;;;;;;;;;5041459;28;20240;-68
2023/03/02 14:03:39;;;;;;;0.40;0.40;;;;;;;;;;5050697;28;20262;-68
2023/03/02 14:06:06;;;;;;;0.40;0.40;;;;;;;;;;5040840;28;20266;-68
2023/03/02 14:08:32;;;;;;;0.00;0.00;;;;;;;;;;5050984;28;20232;-67
2023/03/02 14:10:59;;;;;;;0.03;0.03;;;;;;;;;;5039822;28;20575;-68
2023/03/02 14:13:28;;;;;;;0.03;0.03;;;;;;;;;;5051746;28;20207;-68
2023/03/02 14:15:55;;;;;;;0.08;0.08;;;;;;;;;;5039330;28;20262;-68
2023/03/02 14:18:27;;;;;;;0.00;0.00;;;;;;;;;;5052500;28;20247;-68
2023/03/02 14:20:55;;;;;;;0.08;0.08;;;;;;;;;;5039089;28;20282;-67
2023/03/02 14:23:21;;;;;;;0.03;0.03;;;;;;;;;;5052206;28;20245;-67
2023/03/02 14:25:48;;;;;;;0.00;0.00;;;;;;;;;;5038424;28;20250;-68
2023/03/02 14:28:18;;;;;;;0.10;0.10;;;;;;;;;;5053079;28;20246;-68
2023/03/02 14:30:44;;;;;;;0.00;0.00;;;;;;;;;;5038010;28;20259;-68
2023/03/02 14:33:15;;;;;;;0.28;0.28;;;;;;;;;;5053591;28;20396;-68
2023/03/02 14:35:45;;;;;;;0.00;0.00;;;;;;;;;;5037372;28;20633;-68
2023/03/02 14:38:12;;;;;;;0.10;0.10;;;;;;;;;;5053644;28;20236;-68
2023/03/02 14:40:39;;;;;;;0.10;0.10;;;;;;;;;;5037133;28;20308;-68
2023/03/02 14:43:05;;;;;;;0.00;0.00;;;;;;;;;;5054059;28;20455;-68
2023/03/02 14:45:31;;;;;;;0.00;0.00;;;;;;;;;;5036046;28;20254;-68
2023/03/02 14:47:58;;;;;;;0.00;0.00;;;;;;;;;;5055711;28;20278;-67